sensor_id;sensor_type;location;lat;lon;timestamp;P1;durP1;ratioP1;P2;durP2;ratioP2
75760;SDS011;64373;46.136;8.830;2023-05-10T00:01:33;1.58;;;0.75;;
75760;SDS011;64373;46.136;8.830;2023-05-10T00:03:59;0.93;;;0.80;;
75760;SDS011;64373;46.136;8.830;2023-05-10T00:06:24;1.33;;;0.63;;
75760;SDS011;64373;46.136;8.830;2023-05-10T00:08:50;1.13;;;0.65;;
75760;SDS011;64373;46.136;8.830;2023-05-10T00:11:15;0.88;;;0.75;;
75760;SDS011;64373;46.136;8.830;2023-05-10T00:13:41;1.20;;;0.60;;
75760;SDS011;64373;46.136;8.830;2023-05-10T00:16:06;2.03;;;0.60;;
75760;SDS011;64373;46.136;8.830;2023-05-10T00:18:32;0.35;;;0.35;;
75760;SDS011;64373;46.136;8.830;2023-05-10T00:20:57;0.50;;;0.45;;
75760;SDS011;64373;46.136;8.830;2023-05-10T00:23:23;0.50;;;0.30;;
75760;SDS011;64373;46.136;8.830;2023-05-10T00:25:48;0.40;;;0.30;;
75760;SDS011;64373;46.136;8.830;2023-05-10T00:28:14;0.68;;;0.60;;
75760;SDS011;64373;46.136;8.830;2023-05-10T00:30:40;0.68;;;0.45;;
75760;SDS011;64373;46.136;8.830;2023-05-10T00:33:05;0.50;;;0.50;;
75760;SDS011;64373;46.136;8.830;2023-05-10T00:35:31;0.88;;;0.50;;
75760;SDS011;64373;46.136;8.830;2023-05-10T00:37:56;0.80;;;0.40;;
75760;SDS011;64373;46.136;8.830;2023-05-10T00:40:22;0.38;;;0.38;;
75760;SDS011;64373;46.136;8.830;2023-05-10T00:42:47;1.15;;;0.60;;
75760;SDS011;64373;46.136;8.830;2023-05-10T00:45:13;0.20;;;0.20;;
75760;SDS011;64373;46.136;8.830;2023-05-10T00:47:39;0.20;;;0.20;;
75760;SDS011;64373;46.136;8.830;2023-05-10T00:50:05;0.20;;;0.17;;
75760;SDS011;64373;46.136;8.830;2023-05-10T00:52:31;0.65;;;0.30;;
75760;SDS011;64373;46.136;8.830;2023-05-10T00:54:56;0.88;;;0.30;;
75760;SDS011;64373;46.136;8.830;2023-05-10T00:57:22;0.98;;;0.22;;
75760;SDS011;64373;46.136;8.830;2023-05-10T00:59:48;0.20;;;0.20;;
75760;SDS011;64373;46.136;8.830;2023-05-10T01:02:13;1.13;;;0.30;;
75760;SDS011;64373;46.136;8.830;2023-05-10T01:04:39;0.47;;;0.30;;
75760;SDS011;64373;46.136;8.830;2023-05-10T01:07:05;1.58;;;0.80;;
75760;SDS011;64373;46.136;8.830;2023-05-10T01:09:31;0.50;;;0.40;;
75760;SDS011;64373;46.136;8.830;2023-05-10T01:11:57;0.52;;;0.40;;
75760;SDS011;64373;46.136;8.830;2023-05-10T01:14:23;2.65;;;0.60;;
75760;SDS011;64373;46.136;8.830;2023-05-10T01:16:50;0.28;;;0.28;;
75760;SDS011;64373;46.136;8.830;2023-05-10T01:19:19;1.05;;;0.40;;
75760;SDS011;64373;46.136;8.830;2023-05-10T01:39:15;0.70;;;0.30;;
75760;SDS011;64373;46.136;8.830;2023-05-10T01:41:54;9.20;;;0.80;;
75760;SDS011;64373;46.136;8.830;2023-05-10T01:44:34;1.38;;;0.40;;
75760;SDS011;64373;46.136;8.830;2023-05-10T01:47:15;0.65;;;0.30;;
75760;SDS011;64373;46.136;8.830;2023-05-10T01:49:47;0.30;;;0.30;;
75760;SDS011;64373;46.136;8.830;2023-05-10T01:52:16;0.25;;;0.20;;
75760;SDS011;64373;46.136;8.830;2023-05-10T01:54:54;0.40;;;0.28;;
75760;SDS011;64373;46.136;8.830;2023-05-10T01:57:22;1.23;;;0.30;;
75760;SDS011;64373;46.136;8.830;2023-05-10T01:59:51;2.40;;;0.63;;
75760;SDS011;64373;46.136;8.830;2023-05-10T02:02:18;1.55;;;0.60;;
75760;SDS011;64373;46.136;8.830;2023-05-10T02:04:46;0.70;;;0.38;;
75760;SDS011;64373;46.136;8.830;2023-05-10T02:07:12;0.30;;;0.30;;
75760;SDS011;64373;46.136;8.830;2023-05-10T02:09:39;1.75;;;0.32;;
75760;SDS011;64373;46.136;8.830;2023-05-10T02:12:06;2.10;;;0.40;;
75760;SDS011;64373;46.136;8.830;2023-05-10T02:14:32;0.40;;;0.40;;
75760;SDS011;64373;46.136;8.830;2023-05-10T02:17:00;0.47;;;0.25;;
75760;SDS011;64373;46.136;8.830;2023-05-10T02:19:27;1.20;;;0.25;;
75760;SDS011;64373;46.136;8.830;2023-05-10T02:21:54;0.20;;;0.20;;
75760;SDS011;64373;46.136;8.830;2023-05-10T02:24:20;0.20;;;0.20;;
75760;SDS011;64373;46.136;8.830;2023-05-10T02:26:46;0.30;;;0.30;;
75760;SDS011;64373;46.136;8.830;2023-05-10T02:29:13;0.17;;;0.17;;
75760;SDS011;64373;46.136;8.830;2023-05-10T02:31:39;0.57;;;0.28;;
75760;SDS011;64373;46.136;8.830;2023-05-10T02:34:08;0.20;;;0.20;;
75760;SDS011;64373;46.136;8.830;2023-05-10T02:36:35;0.63;;;0.20;;
75760;SDS011;64373;46.136;8.830;2023-05-10T02:39:04;0.75;;;0.30;;
75760;SDS011;64373;46.136;8.830;2023-05-10T02:41:35;0.20;;;0.20;;
75760;SDS011;64373;46.136;8.830;2023-05-10T02:44:01;0.77;;;0.40;;
75760;SDS011;64373;46.136;8.830;2023-05-10T02:46:28;0.40;;;0.30;;
75760;SDS011;64373;46.136;8.830;2023-05-10T02:48:53;0.30;;;0.25;;
75760;SDS011;64373;46.136;8.830;2023-05-10T02:51:19;0.20;;;0.15;;
75760;SDS011;64373;46.136;8.830;2023-05-10T02:53:49;1.10;;;0.50;;
75760;SDS011;64373;46.136;8.830;2023-05-10T02:56:25;1.80;;;0.30;;
75760;SDS011;64373;46.136;8.830;2023-05-10T02:58:54;5.47;;;1.10;;
75760;SDS011;64373;46.136;8.830;2023-05-10T03:01:20;1.65;;;0.90;;
75760;SDS011;64373;46.136;8.830;2023-05-10T03:03:46;1.63;;;0.90;;
75760;SDS011;64373;46.136;8.830;2023-05-10T03:06:11;1.27;;;0.60;;
75760;SDS011;64373;46.136;8.830;2023-05-10T03:08:37;1.17;;;0.70;;
75760;SDS011;64373;46.136;8.830;2023-05-10T03:11:13;1.10;;;0.70;;
75760;SDS011;64373;46.136;8.830;2023-05-10T03:13:44;1.63;;;0.70;;
75760;SDS011;64373;46.136;8.830;2023-05-10T03:16:23;1.75;;;1.13;;
75760;SDS011;64373;46.136;8.830;2023-05-10T03:18:56;2.35;;;1.15;;
75760;SDS011;64373;46.136;8.830;2023-05-10T03:21:29;0.95;;;0.85;;
75760;SDS011;64373;46.136;8.830;2023-05-10T03:26:26;1.02;;;0.80;;
75760;SDS011;64373;46.136;8.830;2023-05-10T03:28:52;1.80;;;0.65;;
75760;SDS011;64373;46.136;8.830;2023-05-10T03:31:18;1.38;;;0.95;;
75760;SDS011;64373;46.136;8.830;2023-05-10T03:33:47;0.70;;;0.57;;
75760;SDS011;64373;46.136;8.830;2023-05-10T03:36:16;1.10;;;0.82;;
75760;SDS011;64373;46.136;8.830;2023-05-10T03:38:42;1.50;;;1.17;;
75760;SDS011;64373;46.136;8.830;2023-05-10T03:41:07;1.45;;;1.20;;
75760;SDS011;64373;46.136;8.830;2023-05-10T03:43:33;1.40;;;1.00;;
75760;SDS011;64373;46.136;8.830;2023-05-10T03:46:01;1.38;;;1.00;;
75760;SDS011;64373;46.136;8.830;2023-05-10T03:48:27;3.90;;;1.10;;
75760;SDS011;64373;46.136;8.830;2023-05-10T03:50:53;0.80;;;0.70;;
75760;SDS011;64373;46.136;8.830;2023-05-10T03:53:18;0.80;;;0.70;;
75760;SDS011;64373;46.136;8.830;2023-05-10T03:55:44;0.50;;;0.50;;
75760;SDS011;64373;46.136;8.830;2023-05-10T03:58:13;0.40;;;0.40;;
75760;SDS011;64373;46.136;8.830;2023-05-10T04:00:38;0.60;;;0.60;;
75760;SDS011;64373;46.136;8.830;2023-05-10T04:03:08;3.45;;;0.70;;
75760;SDS011;64373;46.136;8.830;2023-05-10T04:05:35;0.60;;;0.50;;
75760;SDS011;64373;46.136;8.830;2023-05-10T04:08:01;1.58;;;0.80;;
75760;SDS011;64373;46.136;8.830;2023-05-10T04:10:27;2.97;;;1.30;;
75760;SDS011;64373;46.136;8.830;2023-05-10T04:12:52;0.82;;;0.70;;
75760;SDS011;64373;46.136;8.830;2023-05-10T04:15:18;1.35;;;0.80;;
75760;SDS011;64373;46.136;8.830;2023-05-10T04:17:43;1.38;;;1.25;;
75760;SDS011;64373;46.136;8.830;2023-05-10T04:20:09;2.33;;;1.30;;
75760;SDS011;64373;46.136;8.830;2023-05-10T04:22:35;0.60;;;0.60;;
75760;SDS011;64373;46.136;8.830;2023-05-10T04:25:01;0.60;;;0.60;;
75760;SDS011;64373;46.136;8.830;2023-05-10T04:27:26;0.82;;;0.40;;
75760;SDS011;64373;46.136;8.830;2023-05-10T04:29:52;0.40;;;0.40;;
75760;SDS011;64373;46.136;8.830;2023-05-10T04:32:17;1.25;;;0.50;;
75760;SDS011;64373;46.136;8.830;2023-05-10T04:34:43;1.27;;;0.85;;
75760;SDS011;64373;46.136;8.830;2023-05-10T04:37:09;1.85;;;0.90;;
75760;SDS011;64373;46.136;8.830;2023-05-10T04:39:35;2.38;;;1.50;;
75760;SDS011;64373;46.136;8.830;2023-05-10T04:42:01;2.15;;;1.33;;
75760;SDS011;64373;46.136;8.830;2023-05-10T04:44:28;2.03;;;1.40;;
75760;SDS011;64373;46.136;8.830;2023-05-10T04:46:54;1.30;;;0.90;;
75760;SDS011;64373;46.136;8.830;2023-05-10T04:49:20;2.00;;;0.95;;
75760;SDS011;64373;46.136;8.830;2023-05-10T04:51:45;3.08;;;1.95;;
75760;SDS011;64373;46.136;8.830;2023-05-10T04:54:11;3.15;;;2.22;;
75760;SDS011;64373;46.136;8.830;2023-05-10T04:56:37;3.17;;;1.40;;
75760;SDS011;64373;46.136;8.830;2023-05-10T04:59:02;10.00;;;2.58;;
75760;SDS011;64373;46.136;8.830;2023-05-10T05:01:28;3.25;;;2.03;;
75760;SDS011;64373;46.136;8.830;2023-05-10T05:03:53;2.03;;;1.67;;
75760;SDS011;64373;46.136;8.830;2023-05-10T05:06:19;2.65;;;1.63;;
75760;SDS011;64373;46.136;8.830;2023-05-10T05:08:46;2.03;;;1.50;;
75760;SDS011;64373;46.136;8.830;2023-05-10T05:11:11;1.88;;;1.40;;
75760;SDS011;64373;46.136;8.830;2023-05-10T05:13:37;1.50;;;1.20;;
75760;SDS011;64373;46.136;8.830;2023-05-10T05:16:02;1.85;;;1.00;;
75760;SDS011;64373;46.136;8.830;2023-05-10T05:18:28;2.28;;;1.38;;
75760;SDS011;64373;46.136;8.830;2023-05-10T05:20:54;1.30;;;1.10;;
75760;SDS011;64373;46.136;8.830;2023-05-10T05:23:20;1.02;;;0.90;;
75760;SDS011;64373;46.136;8.830;2023-05-10T05:25:46;1.20;;;1.10;;
75760;SDS011;64373;46.136;8.830;2023-05-10T05:28:12;1.25;;;0.90;;
75760;SDS011;64373;46.136;8.830;2023-05-10T05:30:37;1.25;;;0.68;;
75760;SDS011;64373;46.136;8.830;2023-05-10T05:33:03;0.93;;;0.70;;
75760;SDS011;64373;46.136;8.830;2023-05-10T05:35:29;1.50;;;1.15;;
75760;SDS011;64373;46.136;8.830;2023-05-10T05:37:54;2.10;;;1.33;;
75760;SDS011;64373;46.136;8.830;2023-05-10T05:40:20;2.88;;;2.35;;
75760;SDS011;64373;46.136;8.830;2023-05-10T05:42:46;2.63;;;1.55;;
75760;SDS011;64373;46.136;8.830;2023-05-10T05:45:12;2.00;;;1.42;;
75760;SDS011;64373;46.136;8.830;2023-05-10T05:47:40;1.20;;;1.10;;
75760;SDS011;64373;46.136;8.830;2023-05-10T05:50:06;1.13;;;1.02;;
75760;SDS011;64373;46.136;8.830;2023-05-10T05:52:32;1.92;;;1.65;;
75760;SDS011;64373;46.136;8.830;2023-05-10T05:54:57;1.88;;;1.45;;
75760;SDS011;64373;46.136;8.830;2023-05-10T05:57:23;1.40;;;1.17;;
75760;SDS011;64373;46.136;8.830;2023-05-10T05:59:48;3.28;;;1.63;;
75760;SDS011;64373;46.136;8.830;2023-05-10T06:02:14;2.50;;;1.98;;
75760;SDS011;64373;46.136;8.830;2023-05-10T06:04:39;1.58;;;1.30;;
75760;SDS011;64373;46.136;8.830;2023-05-10T06:07:05;2.22;;;1.77;;
75760;SDS011;64373;46.136;8.830;2023-05-10T06:09:30;2.58;;;2.10;;
75760;SDS011;64373;46.136;8.830;2023-05-10T06:11:56;2.28;;;1.60;;
75760;SDS011;64373;46.136;8.830;2023-05-10T06:14:22;2.10;;;1.50;;
75760;SDS011;64373;46.136;8.830;2023-05-10T06:16:47;2.30;;;1.38;;
75760;SDS011;64373;46.136;8.830;2023-05-10T06:19:13;2.60;;;1.67;;
75760;SDS011;64373;46.136;8.830;2023-05-10T06:21:38;1.75;;;1.65;;
75760;SDS011;64373;46.136;8.830;2023-05-10T06:24:04;2.58;;;2.03;;
75760;SDS011;64373;46.136;8.830;2023-05-10T06:26:31;2.10;;;1.90;;
75760;SDS011;64373;46.136;8.830;2023-05-10T06:28:57;2.50;;;1.85;;
75760;SDS011;64373;46.136;8.830;2023-05-10T06:31:23;2.45;;;1.85;;
75760;SDS011;64373;46.136;8.830;2023-05-10T06:33:49;3.08;;;1.90;;
75760;SDS011;64373;46.136;8.830;2023-05-10T06:36:14;2.10;;;1.63;;
75760;SDS011;64373;46.136;8.830;2023-05-10T06:38:40;2.63;;;1.67;;
75760;SDS011;64373;46.136;8.830;2023-05-10T06:41:05;1.58;;;1.20;;
75760;SDS011;64373;46.136;8.830;2023-05-10T06:43:31;1.50;;;1.00;;
75760;SDS011;64373;46.136;8.830;2023-05-10T06:45:57;1.42;;;1.33;;
75760;SDS011;64373;46.136;8.830;2023-05-10T06:48:22;2.40;;;2.13;;
75760;SDS011;64373;46.136;8.830;2023-05-10T06:50:48;3.67;;;1.88;;
75760;SDS011;64373;46.136;8.830;2023-05-10T06:53:14;2.25;;;1.75;;
75760;SDS011;64373;46.136;8.830;2023-05-10T06:55:40;3.05;;;1.90;;
75760;SDS011;64373;46.136;8.830;2023-05-10T06:58:06;3.38;;;1.90;;
75760;SDS011;64373;46.136;8.830;2023-05-10T07:00:31;2.45;;;1.90;;
75760;SDS011;64373;46.136;8.830;2023-05-10T07:02:57;2.13;;;1.42;;
75760;SDS011;64373;46.136;8.830;2023-05-10T07:05:26;1.60;;;1.40;;
75760;SDS011;64373;46.136;8.830;2023-05-10T07:07:52;1.40;;;1.27;;
75760;SDS011;64373;46.136;8.830;2023-05-10T07:10:18;2.50;;;2.00;;
75760;SDS011;64373;46.136;8.830;2023-05-10T07:12:43;3.55;;;2.20;;
75760;SDS011;64373;46.136;8.830;2023-05-10T07:15:09;2.35;;;1.77;;
75760;SDS011;64373;46.136;8.830;2023-05-10T07:17:35;2.10;;;1.70;;
75760;SDS011;64373;46.136;8.830;2023-05-10T07:20:01;2.58;;;1.98;;
75760;SDS011;64373;46.136;8.830;2023-05-10T07:22:26;2.10;;;1.70;;
75760;SDS011;64373;46.136;8.830;2023-05-10T07:24:52;1.83;;;1.70;;
75760;SDS011;64373;46.136;8.830;2023-05-10T07:27:18;2.38;;;1.20;;
75760;SDS011;64373;46.136;8.830;2023-05-10T07:29:43;1.58;;;1.27;;
75760;SDS011;64373;46.136;8.830;2023-05-10T07:32:09;1.17;;;1.02;;
75760;SDS011;64373;46.136;8.830;2023-05-10T07:34:34;1.60;;;1.10;;
75760;SDS011;64373;46.136;8.830;2023-05-10T07:37:00;1.63;;;1.10;;
75760;SDS011;64373;46.136;8.830;2023-05-10T07:39:26;1.30;;;1.20;;
75760;SDS011;64373;46.136;8.830;2023-05-10T07:41:53;1.17;;;1.08;;
75760;SDS011;64373;46.136;8.830;2023-05-10T07:44:19;1.10;;;0.85;;
75760;SDS011;64373;46.136;8.830;2023-05-10T07:46:45;1.20;;;1.08;;
75760;SDS011;64373;46.136;8.830;2023-05-10T07:49:12;1.77;;;1.13;;
75760;SDS011;64373;46.136;8.830;2023-05-10T07:51:37;1.58;;;0.98;;
75760;SDS011;64373;46.136;8.830;2023-05-10T07:54:03;0.77;;;0.77;;
75760;SDS011;64373;46.136;8.830;2023-05-10T07:56:29;0.70;;;0.70;;
75760;SDS011;64373;46.136;8.830;2023-05-10T07:58:57;1.02;;;0.90;;
75760;SDS011;64373;46.136;8.830;2023-05-10T08:01:23;1.00;;;0.90;;
75760;SDS011;64373;46.136;8.830;2023-05-10T08:03:49;3.45;;;1.40;;
75760;SDS011;64373;46.136;8.830;2023-05-10T08:06:16;3.92;;;1.63;;
75760;SDS011;64373;46.136;8.830;2023-05-10T08:08:43;5.45;;;2.08;;
75760;SDS011;64373;46.136;8.830;2023-05-10T08:11:10;2.03;;;1.60;;
75760;SDS011;64373;46.136;8.830;2023-05-10T08:13:36;2.85;;;1.65;;
75760;SDS011;64373;46.136;8.830;2023-05-10T08:16:01;2.83;;;1.83;;
75760;SDS011;64373;46.136;8.830;2023-05-10T08:18:27;3.20;;;1.90;;
75760;SDS011;64373;46.136;8.830;2023-05-10T08:20:53;2.78;;;1.88;;
75760;SDS011;64373;46.136;8.830;2023-05-10T08:23:19;2.83;;;2.00;;
75760;SDS011;64373;46.136;8.830;2023-05-10T08:25:45;2.88;;;2.10;;
75760;SDS011;64373;46.136;8.830;2023-05-10T08:28:11;2.83;;;2.20;;
75760;SDS011;64373;46.136;8.830;2023-05-10T08:30:36;2.42;;;2.15;;
75760;SDS011;64373;46.136;8.830;2023-05-10T08:33:02;2.70;;;2.10;;
75760;SDS011;64373;46.136;8.830;2023-05-10T08:35:27;4.32;;;1.85;;
75760;SDS011;64373;46.136;8.830;2023-05-10T08:37:53;4.53;;;2.30;;
75760;SDS011;64373;46.136;8.830;2023-05-10T08:40:19;2.45;;;1.88;;
75760;SDS011;64373;46.136;8.830;2023-05-10T08:42:48;2.42;;;1.98;;
75760;SDS011;64373;46.136;8.830;2023-05-10T08:45:19;3.30;;;2.22;;
75760;SDS011;64373;46.136;8.830;2023-05-10T08:47:45;3.42;;;1.90;;
75760;SDS011;64373;46.136;8.830;2023-05-10T08:50:11;2.53;;;2.00;;
75760;SDS011;64373;46.136;8.830;2023-05-10T08:52:37;2.15;;;1.80;;
75760;SDS011;64373;46.136;8.830;2023-05-10T08:55:06;2.33;;;2.00;;
75760;SDS011;64373;46.136;8.830;2023-05-10T08:57:32;3.42;;;1.85;;
75760;SDS011;64373;46.136;8.830;2023-05-10T08:59:58;2.70;;;1.90;;
75760;SDS011;64373;46.136;8.830;2023-05-10T09:02:25;2.85;;;2.17;;
75760;SDS011;64373;46.136;8.830;2023-05-10T09:04:52;2.00;;;1.85;;
75760;SDS011;64373;46.136;8.830;2023-05-10T09:07:17;2.88;;;1.90;;
75760;SDS011;64373;46.136;8.830;2023-05-10T09:09:43;6.10;;;1.92;;
75760;SDS011;64373;46.136;8.830;2023-05-10T09:12:09;5.82;;;2.25;;
75760;SDS011;64373;46.136;8.830;2023-05-10T09:14:36;5.05;;;2.40;;
75760;SDS011;64373;46.136;8.830;2023-05-10T09:17:03;3.10;;;2.30;;
75760;SDS011;64373;46.136;8.830;2023-05-10T09:19:29;3.45;;;1.98;;
75760;SDS011;64373;46.136;8.830;2023-05-10T09:21:55;4.07;;;1.95;;
75760;SDS011;64373;46.136;8.830;2023-05-10T09:24:24;2.30;;;1.90;;
75760;SDS011;64373;46.136;8.830;2023-05-10T09:26:50;2.15;;;1.70;;
75760;SDS011;64373;46.136;8.830;2023-05-10T09:29:16;2.55;;;1.88;;
75760;SDS011;64373;46.136;8.830;2023-05-10T09:31:48;2.65;;;2.28;;
75760;SDS011;64373;46.136;8.830;2023-05-10T09:34:30;2.25;;;1.77;;
75760;SDS011;64373;46.136;8.830;2023-05-10T09:36:58;5.15;;;2.22;;
75760;SDS011;64373;46.136;8.830;2023-05-10T09:39:38;2.92;;;1.90;;
75760;SDS011;64373;46.136;8.830;2023-05-10T09:42:05;5.13;;;1.95;;
75760;SDS011;64373;46.136;8.830;2023-05-10T09:44:32;4.07;;;2.20;;
75760;SDS011;64373;46.136;8.830;2023-05-10T09:46:59;5.70;;;2.13;;
75760;SDS011;64373;46.136;8.830;2023-05-10T09:49:28;3.55;;;2.33;;
75760;SDS011;64373;46.136;8.830;2023-05-10T09:52:00;9.00;;;4.50;;
75760;SDS011;64373;46.136;8.830;2023-05-10T09:54:27;5.00;;;2.30;;
75760;SDS011;64373;46.136;8.830;2023-05-10T09:56:54;10.68;;;2.88;;
75760;SDS011;64373;46.136;8.830;2023-05-10T09:59:20;2.95;;;2.40;;
75760;SDS011;64373;46.136;8.830;2023-05-10T10:01:50;3.83;;;2.35;;
75760;SDS011;64373;46.136;8.830;2023-05-10T10:04:16;4.13;;;2.50;;
75760;SDS011;64373;46.136;8.830;2023-05-10T10:06:42;4.18;;;2.55;;
75760;SDS011;64373;46.136;8.830;2023-05-10T10:09:08;5.13;;;2.28;;
75760;SDS011;64373;46.136;8.830;2023-05-10T10:11:34;5.90;;;2.85;;
75760;SDS011;64373;46.136;8.830;2023-05-10T10:14:00;4.53;;;2.40;;
75760;SDS011;64373;46.136;8.830;2023-05-10T10:16:27;3.38;;;2.00;;
75760;SDS011;64373;46.136;8.830;2023-05-10T10:18:55;3.83;;;2.22;;
75760;SDS011;64373;46.136;8.830;2023-05-10T10:21:21;3.72;;;2.40;;
75760;SDS011;64373;46.136;8.830;2023-05-10T10:23:47;9.35;;;2.53;;
75760;SDS011;64373;46.136;8.830;2023-05-10T10:26:13;8.75;;;3.63;;
75760;SDS011;64373;46.136;8.830;2023-05-10T10:29:04;8.55;;;2.63;;
75760;SDS011;64373;46.136;8.830;2023-05-10T10:31:51;3.00;;;2.10;;
75760;SDS011;64373;46.136;8.830;2023-05-10T10:34:33;2.88;;;1.98;;
75760;SDS011;64373;46.136;8.830;2023-05-10T10:37:03;2.05;;;1.70;;
75760;SDS011;64373;46.136;8.830;2023-05-10T10:39:30;2.20;;;1.98;;
75760;SDS011;64373;46.136;8.830;2023-05-10T10:41:57;5.97;;;2.10;;
75760;SDS011;64373;46.136;8.830;2023-05-10T10:44:23;3.35;;;1.85;;
75760;SDS011;64373;46.136;8.830;2023-05-10T10:57:25;3.47;;;1.70;;
75760;SDS011;64373;46.136;8.830;2023-05-10T11:07:58;2.17;;;1.63;;
75760;SDS011;64373;46.136;8.830;2023-05-10T11:10:25;7.93;;;2.70;;
75760;SDS011;64373;46.136;8.830;2023-05-10T11:13:00;3.17;;;2.25;;
75760;SDS011;64373;46.136;8.830;2023-05-10T11:15:48;11.80;;;3.05;;
75760;SDS011;64373;46.136;8.830;2023-05-10T11:20:43;3.20;;;1.85;;
75760;SDS011;64373;46.136;8.830;2023-05-10T11:23:12;6.40;;;1.80;;
75760;SDS011;64373;46.136;8.830;2023-05-10T11:25:44;2.60;;;2.03;;
75760;SDS011;64373;46.136;8.830;2023-05-10T11:28:11;2.20;;;1.77;;
75760;SDS011;64373;46.136;8.830;2023-05-10T11:30:40;3.33;;;1.85;;
75760;SDS011;64373;46.136;8.830;2023-05-10T11:33:07;3.33;;;1.90;;
75760;SDS011;64373;46.136;8.830;2023-05-10T11:35:39;4.85;;;2.13;;
75760;SDS011;64373;46.136;8.830;2023-05-10T11:38:09;2.65;;;1.77;;
75760;SDS011;64373;46.136;8.830;2023-05-10T11:40:36;4.22;;;2.25;;
75760;SDS011;64373;46.136;8.830;2023-05-10T11:43:02;3.10;;;1.95;;
75760;SDS011;64373;46.136;8.830;2023-05-10T11:45:29;2.30;;;1.67;;
75760;SDS011;64373;46.136;8.830;2023-05-10T11:47:58;15.60;;;3.30;;
75760;SDS011;64373;46.136;8.830;2023-05-10T11:50:24;7.53;;;2.83;;
75760;SDS011;64373;46.136;8.830;2023-05-10T11:52:57;2.58;;;1.60;;
75760;SDS011;64373;46.136;8.830;2023-05-10T11:55:23;1.67;;;1.48;;
75760;SDS011;64373;46.136;8.830;2023-05-10T11:57:53;1.40;;;1.30;;
75760;SDS011;64373;46.136;8.830;2023-05-10T12:00:19;3.83;;;1.55;;
75760;SDS011;64373;46.136;8.830;2023-05-10T12:02:45;1.40;;;1.23;;
75760;SDS011;64373;46.136;8.830;2023-05-10T12:05:11;1.38;;;1.27;;
75760;SDS011;64373;46.136;8.830;2023-05-10T12:07:37;2.00;;;1.60;;
75760;SDS011;64373;46.136;8.830;2023-05-10T12:10:09;1.60;;;1.40;;
75760;SDS011;64373;46.136;8.830;2023-05-10T12:12:42;2.33;;;1.17;;
75760;SDS011;64373;46.136;8.830;2023-05-10T12:17:45;4.55;;;1.02;;
75760;SDS011;64373;46.136;8.830;2023-05-10T12:22:43;2.33;;;1.48;;
75760;SDS011;64373;46.136;8.830;2023-05-10T12:25:09;1.45;;;1.33;;
75760;SDS011;64373;46.136;8.830;2023-05-10T12:27:35;1.83;;;1.40;;
75760;SDS011;64373;46.136;8.830;2023-05-10T12:30:01;1.50;;;1.40;;
75760;SDS011;64373;46.136;8.830;2023-05-10T12:32:40;1.90;;;1.60;;
75760;SDS011;64373;46.136;8.830;2023-05-10T12:35:06;1.42;;;1.33;;
75760;SDS011;64373;46.136;8.830;2023-05-10T12:37:32;2.88;;;1.40;;
75760;SDS011;64373;46.136;8.830;2023-05-10T12:40:01;1.25;;;1.02;;
75760;SDS011;64373;46.136;8.830;2023-05-10T12:42:28;2.03;;;1.15;;
75760;SDS011;64373;46.136;8.830;2023-05-10T12:44:55;1.02;;;0.93;;
75760;SDS011;64373;46.136;8.830;2023-05-10T12:47:21;6.07;;;1.73;;
75760;SDS011;64373;46.136;8.830;2023-05-10T12:49:47;2.05;;;1.40;;
75760;SDS011;64373;46.136;8.830;2023-05-10T12:52:13;2.92;;;1.50;;
75760;SDS011;64373;46.136;8.830;2023-05-10T12:54:38;1.88;;;1.10;;
75760;SDS011;64373;46.136;8.830;2023-05-10T12:57:04;1.58;;;1.20;;
75760;SDS011;64373;46.136;8.830;2023-05-10T12:59:29;1.95;;;1.17;;
75760;SDS011;64373;46.136;8.830;2023-05-10T13:01:56;1.38;;;1.17;;
75760;SDS011;64373;46.136;8.830;2023-05-10T13:04:22;2.00;;;1.48;;
75760;SDS011;64373;46.136;8.830;2023-05-10T13:06:48;1.75;;;1.60;;
75760;SDS011;64373;46.136;8.830;2023-05-10T13:09:13;1.58;;;1.42;;
75760;SDS011;64373;46.136;8.830;2023-05-10T13:11:39;1.20;;;1.10;;
75760;SDS011;64373;46.136;8.830;2023-05-10T13:14:04;2.22;;;1.20;;
75760;SDS011;64373;46.136;8.830;2023-05-10T13:16:31;1.30;;;1.20;;
75760;SDS011;64373;46.136;8.830;2023-05-10T13:18:56;1.95;;;1.50;;
75760;SDS011;64373;46.136;8.830;2023-05-10T13:21:22;2.05;;;1.83;;
75760;SDS011;64373;46.136;8.830;2023-05-10T13:23:49;2.25;;;1.50;;
75760;SDS011;64373;46.136;8.830;2023-05-10T13:26:15;2.70;;;1.60;;
75760;SDS011;64373;46.136;8.830;2023-05-10T13:28:40;2.00;;;1.60;;
75760;SDS011;64373;46.136;8.830;2023-05-10T13:31:06;1.77;;;1.30;;
75760;SDS011;64373;46.136;8.830;2023-05-10T13:33:32;1.70;;;1.25;;
75760;SDS011;64373;46.136;8.830;2023-05-10T13:35:57;1.85;;;1.40;;
75760;SDS011;64373;46.136;8.830;2023-05-10T13:38:23;9.27;;;2.15;;
75760;SDS011;64373;46.136;8.830;2023-05-10T13:40:48;1.20;;;1.10;;
75760;SDS011;64373;46.136;8.830;2023-05-10T13:43:17;2.42;;;1.30;;
75760;SDS011;64373;46.136;8.830;2023-05-10T13:45:43;3.00;;;1.42;;
75760;SDS011;64373;46.136;8.830;2023-05-10T13:48:09;2.45;;;1.50;;
75760;SDS011;64373;46.136;8.830;2023-05-10T13:50:34;9.65;;;2.38;;
75760;SDS011;64373;46.136;8.830;2023-05-10T13:53:00;5.63;;;1.60;;
75760;SDS011;64373;46.136;8.830;2023-05-10T13:55:25;2.08;;;1.75;;
75760;SDS011;64373;46.136;8.830;2023-05-10T13:57:51;4.85;;;2.22;;
75760;SDS011;64373;46.136;8.830;2023-05-10T14:00:17;7.25;;;1.88;;
75760;SDS011;64373;46.136;8.830;2023-05-10T14:02:42;11.00;;;3.00;;
75760;SDS011;64373;46.136;8.830;2023-05-10T14:05:08;6.43;;;2.70;;
75760;SDS011;64373;46.136;8.830;2023-05-10T14:07:34;1.83;;;1.20;;
75760;SDS011;64373;46.136;8.830;2023-05-10T14:09:59;2.85;;;1.40;;
75760;SDS011;64373;46.136;8.830;2023-05-10T14:12:25;3.50;;;1.35;;
75760;SDS011;64373;46.136;8.830;2023-05-10T14:14:51;2.00;;;1.40;;
75760;SDS011;64373;46.136;8.830;2023-05-10T14:17:17;3.72;;;1.45;;
75760;SDS011;64373;46.136;8.830;2023-05-10T14:19:42;1.75;;;1.02;;
75760;SDS011;64373;46.136;8.830;2023-05-10T14:22:08;1.88;;;1.00;;
75760;SDS011;64373;46.136;8.830;2023-05-10T14:24:34;1.35;;;0.95;;
75760;SDS011;64373;46.136;8.830;2023-05-10T14:26:59;2.17;;;1.52;;
75760;SDS011;64373;46.136;8.830;2023-05-10T14:29:25;3.95;;;1.40;;
75760;SDS011;64373;46.136;8.830;2023-05-10T14:31:51;1.52;;;1.23;;
75760;SDS011;64373;46.136;8.830;2023-05-10T14:34:16;2.95;;;1.40;;
75760;SDS011;64373;46.136;8.830;2023-05-10T14:36:42;1.73;;;1.17;;
75760;SDS011;64373;46.136;8.830;2023-05-10T14:39:07;2.13;;;1.30;;
75760;SDS011;64373;46.136;8.830;2023-05-10T14:41:35;1.95;;;1.20;;
75760;SDS011;64373;46.136;8.830;2023-05-10T14:44:00;3.15;;;1.45;;
75760;SDS011;64373;46.136;8.830;2023-05-10T14:46:28;1.13;;;1.02;;
75760;SDS011;64373;46.136;8.830;2023-05-10T14:48:54;4.78;;;1.75;;
75760;SDS011;64373;46.136;8.830;2023-05-10T14:51:20;3.35;;;1.40;;
75760;SDS011;64373;46.136;8.830;2023-05-10T14:53:47;4.72;;;1.42;;
75760;SDS011;64373;46.136;8.830;2023-05-10T14:56:14;2.35;;;1.38;;
75760;SDS011;64373;46.136;8.830;2023-05-10T14:58:40;2.88;;;1.40;;
75760;SDS011;64373;46.136;8.830;2023-05-10T15:01:05;2.75;;;1.50;;
75760;SDS011;64373;46.136;8.830;2023-05-10T15:03:31;5.47;;;1.80;;
75760;SDS011;64373;46.136;8.830;2023-05-10T15:05:56;1.50;;;1.40;;
75760;SDS011;64373;46.136;8.830;2023-05-10T15:08:23;2.10;;;1.50;;
75760;SDS011;64373;46.136;8.830;2023-05-10T15:10:50;1.42;;;1.10;;
75760;SDS011;64373;46.136;8.830;2023-05-10T15:13:16;2.58;;;1.35;;
75760;SDS011;64373;46.136;8.830;2023-05-10T15:15:42;1.60;;;1.20;;
75760;SDS011;64373;46.136;8.830;2023-05-10T15:18:08;5.43;;;1.60;;
75760;SDS011;64373;46.136;8.830;2023-05-10T15:20:34;2.28;;;1.45;;
75760;SDS011;64373;46.136;8.830;2023-05-10T15:23:00;1.20;;;1.10;;
75760;SDS011;64373;46.136;8.830;2023-05-10T15:25:25;1.63;;;1.33;;
75760;SDS011;64373;46.136;8.830;2023-05-10T15:27:52;1.65;;;1.38;;
75760;SDS011;64373;46.136;8.830;2023-05-10T15:30:18;1.40;;;1.20;;
75760;SDS011;64373;46.136;8.830;2023-05-10T15:32:43;7.88;;;1.65;;